Time;durP1;ratioP1;P1;durP2;ratioP2;P2;SDS_P1;SDS_P2;PMS_P1;PMS_P2;Temp;Humidity;BMP_temperature;BMP_pressure;BME280_temperature;BME280_humidity;BME280_pressure;Samples;Min_cycle;Max_cycle;Signal;HPM_P1;HPM_P2
2021/11/13 00:00:42;;;;;;;23.60;12.73;;;4.50;89.70;;;;;;4910262;29;20461;-42
2021/11/13 00:03:11;;;;;;;23.03;12.20;;;4.50;89.70;;;;;;4909977;29;20465;-42
2021/11/13 00:05:38;;;;;;;23.70;13.30;;;4.50;89.80;;;;;;4910875;29;20486;-42
2021/11/13 00:08:05;;;;;;;23.10;12.30;;;4.50;89.60;;;;;;4908965;29;20480;-42
2021/11/13 00:10:32;;;;;;;28.40;12.60;;;4.40;89.60;;;;;;4908578;29;20473;-42
2021/11/13 00:13:01;;;;;;;29.23;14.97;;;4.50;89.70;;;;;;4904531;29;20479;-42
2021/11/13 00:15:28;;;;;;;21.33;12.90;;;4.50;89.40;;;;;;4892883;29;20583;-42
2021/11/13 00:17:56;;;;;;;27.67;14.57;;;4.50;89.40;;;;;;4907839;29;20469;-42
2021/11/13 00:20:24;;;;;;;29.63;13.57;;;4.50;89.40;;;;;;4908672;29;21011;-43
2021/11/13 00:22:51;;;;;;;27.07;14.03;;;4.40;89.40;;;;;;4892072;29;20472;-43
2021/11/13 00:25:18;;;;;;;23.70;13.20;;;4.50;89.10;;;;;;4911933;29;20480;-43
2021/11/13 00:27:45;;;;;;;26.00;13.30;;;4.40;89.30;;;;;;4913496;29;20494;-42
2021/11/13 00:30:13;;;;;;;26.40;13.97;;;4.40;89.40;;;;;;4912882;29;20468;-42
2021/11/13 00:32:41;;;;;;;28.13;14.37;;;4.50;88.90;;;;;;4910370;29;20824;-42
2021/11/13 00:35:08;;;;;;;25.27;13.93;;;4.50;88.90;;;;;;4914408;29;20484;-42
2021/11/13 00:37:36;;;;;;;24.30;13.30;;;4.40;89.10;;;;;;4895405;29;20465;-42
2021/11/13 00:40:04;;;;;;;34.10;15.77;;;4.40;89.30;;;;;;4914326;29;20456;-42
2021/11/13 00:42:30;;;;;;;29.10;15.00;;;4.40;89.40;;;;;;4913098;29;20465;-42
2021/11/13 00:44:57;;;;;;;26.00;12.80;;;4.40;89.40;;;;;;4895823;29;20460;-42
2021/11/13 00:47:24;;;;;;;31.00;14.23;;;4.40;89.50;;;;;;4913520;29;20483;-42
2021/11/13 00:49:51;;;;;;;29.30;16.17;;;4.40;89.50;;;;;;4913397;29;20555;-42
2021/11/13 00:52:17;;;;;;;22.50;13.00;;;4.40;89.50;;;;;;4911018;29;20461;-42
2021/11/13 00:54:44;;;;;;;25.60;13.40;;;4.40;89.40;;;;;;4897615;29;20500;-42
2021/11/13 00:57:12;;;;;;;27.40;14.70;;;4.40;89.50;;;;;;4910733;29;20468;-42
2021/11/13 00:59:38;;;;;;;30.13;15.40;;;4.40;89.40;;;;;;4908644;29;20667;-42
2021/11/13 01:02:06;;;;;;;33.03;17.17;;;4.30;89.50;;;;;;4914296;29;20460;-42
2021/11/13 01:04:34;;;;;;;23.40;13.13;;;4.30;89.40;;;;;;4913073;29;20487;-42
2021/11/13 01:07:02;;;;;;;25.03;12.83;;;4.40;89.40;;;;;;4911598;29;20971;-42
2021/11/13 01:09:29;;;;;;;29.90;15.00;;;4.40;89.40;;;;;;4878129;29;20469;-42
2021/11/13 01:11:57;;;;;;;30.37;15.60;;;4.40;89.40;;;;;;4910949;29;20469;-42
2021/11/13 01:14:26;;;;;;;24.23;15.40;;;4.40;89.50;;;;;;4896234;29;20504;-42
2021/11/13 01:16:53;;;;;;;28.90;13.50;;;4.40;89.40;;;;;;4896607;29;20473;-42
2021/11/13 01:19:20;;;;;;;24.27;13.23;;;4.40;89.40;;;;;;4909526;29;20976;-42
2021/11/13 01:21:47;;;;;;;26.87;13.67;;;4.30;89.40;;;;;;4912684;29;20476;-42
2021/11/13 01:24:14;;;;;;;29.10;15.73;;;4.30;89.40;;;;;;4910639;29;20670;-42
2021/11/13 01:26:41;;;;;;;32.27;15.40;;;4.30;89.50;;;;;;4895295;29;20471;-42
2021/11/13 01:29:07;;;;;;;25.53;14.10;;;4.40;89.40;;;;;;4911242;29;20472;-43
2021/11/13 01:31:34;;;;;;;35.17;15.30;;;4.40;89.30;;;;;;4914962;29;20472;-42
2021/11/13 01:34:01;;;;;;;24.23;12.73;;;4.40;89.10;;;;;;4911105;29;20537;-42
2021/11/13 01:36:28;;;;;;;25.13;13.40;;;4.40;89.30;;;;;;4912852;29;20471;-42
2021/11/13 01:38:55;;;;;;;23.40;13.50;;;4.40;89.30;;;;;;4914041;29;20449;-42
2021/11/13 01:41:23;;;;;;;20.80;13.63;;;4.30;89.20;;;;;;4912627;29;20483;-42
2021/11/13 01:43:50;;;;;;;27.20;15.13;;;4.30;89.20;;;;;;4912806;29;20457;-42
2021/11/13 01:46:17;;;;;;;26.90;14.60;;;4.30;89.30;;;;;;4913547;29;20468;-42
2021/11/13 01:48:44;;;;;;;28.17;15.50;;;4.20;89.60;;;;;;4913223;29;20465;-42
2021/11/13 01:51:21;;;;;;;27.73;14.47;;;4.30;89.50;;;;;;4913456;29;20440;-42
2021/11/13 01:53:50;;;;;;;24.67;13.80;;;4.30;89.60;;;;;;4912203;29;20846;-42
2021/11/13 01:56:20;;;;;;;27.83;12.47;;;4.30;89.70;;;;;;4912815;29;20980;-42
2021/11/13 01:58:50;;;;;;;34.50;15.20;;;4.30;89.70;;;;;;4899695;29;20475;-42
2021/11/13 02:01:17;;;;;;;27.80;14.17;;;4.30;89.40;;;;;;4897035;29;20521;-43
2021/11/13 02:03:45;;;;;;;24.07;15.13;;;4.30;89.30;;;;;;4897637;29;20996;-42
2021/11/13 02:06:14;;;;;;;28.20;14.83;;;4.30;89.50;;;;;;4912235;29;20982;-42
2021/11/13 02:08:42;;;;;;;32.90;16.57;;;4.30;89.60;;;;;;4912844;29;20467;-43
2021/11/13 02:11:11;;;;;;;28.73;14.50;;;4.30;89.60;;;;;;4912274;29;20456;-43
2021/11/13 02:13:39;;;;;;;28.80;13.60;;;4.40;89.40;;;;;;4911382;29;20468;-43
2021/11/13 02:16:08;;;;;;;22.00;11.53;;;4.40;89.20;;;;;;4911498;29;20492;-43
2021/11/13 02:18:36;;;;;;;26.60;12.87;;;4.40;89.10;;;;;;4912773;29;20457;-42
2021/11/13 02:21:04;;;;;;;25.53;13.80;;;4.40;89.10;;;;;;4911773;29;21012;-42
2021/11/13 02:23:31;;;;;;;29.63;14.73;;;4.40;88.80;;;;;;4909787;29;20460;-42
2021/11/13 02:25:58;;;;;;;21.73;13.27;;;4.30;88.90;;;;;;4911487;29;20479;-42
2021/11/13 02:28:27;;;;;;;25.23;13.40;;;4.30;89.20;;;;;;4912406;29;20460;-42
2021/11/13 02:30:55;;;;;;;23.80;12.23;;;4.30;89.30;;;;;;4893576;29;20463;-42
2021/11/13 02:33:23;;;;;;;26.50;12.30;;;4.40;88.80;;;;;;4896041;29;20461;-42
2021/11/13 02:35:55;;;;;;;27.73;12.97;;;4.40;88.60;;;;;;4911256;29;20493;-42
2021/11/13 02:38:36;;;;;;;23.40;13.37;;;4.40;88.70;;;;;;4909250;29;20458;-42
2021/11/13 02:41:07;;;;;;;23.90;13.77;;;4.40;88.40;;;;;;4906934;29;20465;-42
2021/11/13 02:43:34;;;;;;;27.23;13.37;;;4.30;87.90;;;;;;4909896;29;20457;-42
2021/11/13 02:46:04;;;;;;;27.53;14.40;;;4.30;88.20;;;;;;4896747;29;20461;-42
2021/11/13 02:48:36;;;;;;;23.40;13.73;;;4.20;88.60;;;;;;4905410;29;20832;-42
2021/11/13 02:51:04;;;;;;;22.90;14.00;;;4.20;89.00;;;;;;4893613;29;20472;-42
2021/11/13 02:53:31;;;;;;;27.20;14.60;;;4.20;89.10;;;;;;4912433;29;20460;-42
2021/11/13 02:56:02;;;;;;;26.90;14.03;;;4.20;89.20;;;;;;4909104;29;20492;-42
2021/11/13 02:58:29;;;;;;;29.67;14.10;;;4.20;89.30;;;;;;4911047;29;20463;-42
2021/11/13 03:01:01;;;;;;;25.10;14.00;;;4.20;89.20;;;;;;4911737;29;20569;-42
2021/11/13 03:03:28;;;;;;;24.03;13.67;;;4.20;89.20;;;;;;4909878;29;20960;-42
2021/11/13 03:05:58;;;;;;;30.83;17.03;;;4.20;89.20;;;;;;4911506;29;20468;-42
2021/11/13 03:08:28;;;;;;;23.87;15.40;;;4.20;89.10;;;;;;4895185;29;20474;-42
2021/11/13 03:10:57;;;;;;;28.07;14.50;;;4.20;89.10;;;;;;4908161;29;20958;-41
2021/11/13 03:13:25;;;;;;;27.57;14.13;;;4.30;88.70;;;;;;4911910;29;20464;-41
2021/11/13 03:15:53;;;;;;;27.77;16.00;;;4.20;88.70;;;;;;4911715;29;20485;-42
2021/11/13 03:18:20;;;;;;;26.33;14.10;;;4.20;89.00;;;;;;4912126;29;20991;-42
2021/11/13 03:20:47;;;;;;;25.40;14.07;;;4.20;89.10;;;;;;4911176;29;20477;-42
2021/11/13 03:23:16;;;;;;;25.90;15.80;;;4.20;89.00;;;;;;4909331;29;20467;-42
2021/11/13 03:25:59;;;;;;;29.17;13.83;;;4.20;89.20;;;;;;4910179;29;20467;-42
2021/11/13 03:28:29;;;;;;;27.93;16.87;;;4.20;88.40;;;;;;4909776;29;20976;-41
2021/11/13 03:31:01;;;;;;;24.27;14.80;;;4.20;88.50;;;;;;4890335;29;20497;-42
2021/11/13 03:33:30;;;;;;;24.70;12.83;;;4.20;88.20;;;;;;4910970;29;20504;-42
2021/11/13 03:35:59;;;;;;;23.30;11.30;;;4.20;88.10;;;;;;4910849;29;20504;-42
2021/11/13 03:38:25;;;;;;;20.73;12.57;;;4.20;87.70;;;;;;4900380;29;20468;-44
2021/11/13 03:40:52;;;;;;;22.40;12.97;;;4.10;88.20;;;;;;4903536;29;20472;-44
2021/11/13 03:43:20;;;;;;;21.70;11.80;;;4.10;88.40;;;;;;4920464;29;20839;-44
2021/11/13 03:45:49;;;;;;;22.23;13.93;;;4.10;88.50;;;;;;4920173;29;20926;-44
2021/11/13 03:48:16;;;;;;;23.37;13.07;;;4.10;88.50;;;;;;4882326;29;20469;-44
2021/11/13 03:50:43;;;;;;;16.20;10.70;;;4.10;88.70;;;;;;4910884;29;20452;-43
2021/11/13 03:53:10;;;;;;;25.97;14.83;;;4.20;88.20;;;;;;4910495;29;20825;-42
2021/11/13 03:55:37;;;;;;;25.30;13.07;;;4.10;88.20;;;;;;4906691;29;20504;-42
2021/11/13 03:58:05;;;;;;;22.73;13.60;;;4.10;88.60;;;;;;4893455;29;20475;-43
2021/11/13 04:00:38;;;;;;;22.10;12.77;;;4.00;88.90;;;;;;4914090;29;20478;-43
2021/11/13 04:03:05;;;;;;;23.77;14.43;;;4.10;88.40;;;;;;4916293;29;20489;-44
2021/11/13 04:05:32;;;;;;;27.93;13.57;;;4.10;88.40;;;;;;4920739;29;20555;-44
2021/11/13 04:07:59;;;;;;;23.73;12.90;;;4.10;88.10;;;;;;4902053;29;20473;-43
2021/11/13 04:10:26;;;;;;;21.07;12.17;;;4.10;88.10;;;;;;4918852;29;20572;-44
2021/11/13 04:12:53;;;;;;;21.83;12.23;;;4.10;88.00;;;;;;4916609;29;20972;-44
2021/11/13 04:15:20;;;;;;;25.57;13.87;;;4.10;88.30;;;;;;4919115;29;20615;-44
2021/11/13 04:17:48;;;;;;;23.03;12.93;;;4.10;88.40;;;;;;4919888;29;20468;-44
2021/11/13 04:20:17;;;;;;;24.80;12.93;;;4.00;88.80;;;;;;4918991;29;20475;-44
2021/11/13 04:22:45;;;;;;;25.97;14.73;;;4.00;88.90;;;;;;4918943;29;20533;-44
2021/11/13 04:25:13;;;;;;;21.50;13.10;;;4.00;88.80;;;;;;4908003;29;20676;-44
2021/11/13 04:27:40;;;;;;;24.57;12.87;;;4.00;88.80;;;;;;4915846;29;20472;-44
2021/11/13 04:30:09;;;;;;;20.20;12.20;;;4.00;89.00;;;;;;4917997;29;20469;-44
2021/11/13 04:32:37;;;;;;;26.43;14.70;;;4.00;88.60;;;;;;4915962;29;20473;-44
2021/11/13 04:37:56;;;;;;;21.30;12.80;;;4.10;88.50;;;;;;4904985;29;20476;-44
2021/11/13 04:40:27;;;;;;;22.80;13.43;;;4.10;88.60;;;;;;4918310;29;20457;-44
2021/11/13 04:42:54;;;;;;;23.03;13.00;;;4.00;89.00;;;;;;4918332;29;20457;-43
2021/11/13 04:45:21;;;;;;;20.70;12.10;;;4.10;89.00;;;;;;4918962;29;20464;-44
2021/11/13 04:47:48;;;;;;;23.60;12.50;;;4.10;89.00;;;;;;4918604;29;20460;-44
2021/11/13 04:50:18;;;;;;;26.67;13.67;;;4.10;89.10;;;;;;4901956;29;20464;-44
2021/11/13 04:52:46;;;;;;;21.27;11.80;;;4.10;89.20;;;;;;4900709;29;20466;-44
2021/11/13 04:55:14;;;;;;;19.87;11.70;;;4.10;89.20;;;;;;4918710;29;20497;-44
2021/11/13 04:57:41;;;;;;;25.07;13.67;;;4.20;89.20;;;;;;4902460;29;20457;-43
2021/11/13 05:00:11;;;;;;;25.10;13.40;;;4.20;89.00;;;;;;4919440;29;20468;-44
2021/11/13 05:02:38;;;;;;;19.53;11.80;;;4.20;88.60;;;;;;4919391;29;20457;-44
2021/11/13 05:05:06;;;;;;;28.60;13.33;;;4.20;88.50;;;;;;4919379;29;20457;-44
2021/11/13 05:07:33;;;;;;;22.30;12.83;;;4.20;88.60;;;;;;4919759;29;20468;-44
2021/11/13 05:09:59;;;;;;;23.50;13.23;;;4.20;88.70;;;;;;4901118;29;20463;-44
2021/11/13 05:12:26;;;;;;;25.47;13.27;;;4.20;88.70;;;;;;4920489;29;20475;-44
2021/11/13 05:14:53;;;;;;;27.97;14.23;;;4.20;89.00;;;;;;4910567;29;20471;-44
2021/11/13 05:17:20;;;;;;;23.40;13.10;;;4.20;89.20;;;;;;4922568;29;20543;-44
2021/11/13 05:19:46;;;;;;;25.20;12.50;;;4.20;89.10;;;;;;4908930;29;20465;-44
2021/11/13 05:22:13;;;;;;;27.67;13.80;;;4.20;89.10;;;;;;4922684;29;20556;-44
2021/11/13 05:24:40;;;;;;;24.67;12.60;;;4.30;89.00;;;;;;4909931;29;20832;-44
2021/11/13 05:27:07;;;;;;;23.67;13.47;;;4.30;88.90;;;;;;4922587;29;20878;-44
2021/11/13 05:29:34;;;;;;;21.83;12.10;;;4.20;89.10;;;;;;4916568;29;20461;-43
2021/11/13 05:32:01;;;;;;;23.13;12.43;;;4.30;89.10;;;;;;4896551;29;20449;-43
2021/11/13 05:34:27;;;;;;;22.20;12.17;;;4.30;89.10;;;;;;4912393;29;20982;-43
2021/11/13 05:36:54;;;;;;;23.83;12.90;;;4.30;89.20;;;;;;4913472;29;21012;-43
2021/11/13 05:39:21;;;;;;;24.20;12.20;;;4.20;89.30;;;;;;4895594;29;20461;-43
2021/11/13 05:41:48;;;;;;;19.37;11.70;;;4.30;89.20;;;;;;4880786;29;20476;-43
2021/11/13 05:44:15;;;;;;;23.90;11.77;;;4.30;88.90;;;;;;4908763;29;20471;-43
2021/11/13 05:46:41;;;;;;;22.63;12.60;;;4.30;89.00;;;;;;4910478;29;20472;-43
2021/11/13 05:49:08;;;;;;;21.43;11.50;;;4.30;89.10;;;;;;4911709;29;20471;-43
2021/11/13 05:51:35;;;;;;;22.53;12.37;;;4.30;89.10;;;;;;4909610;29;20535;-43
2021/11/13 05:54:03;;;;;;;19.37;11.97;;;4.30;89.00;;;;;;4911381;29;21144;-43
2021/11/13 05:56:29;;;;;;;24.03;13.20;;;4.30;88.80;;;;;;4895809;29;20496;-43
2021/11/13 05:58:58;;;;;;;21.43;11.80;;;4.30;89.00;;;;;;4918746;29;21071;-44
2021/11/13 06:01:25;;;;;;;19.70;11.43;;;4.30;89.20;;;;;;4913902;29;20469;-44
2021/11/13 06:03:52;;;;;;;22.67;12.67;;;4.30;89.30;;;;;;4912496;29;20538;-44
2021/11/13 06:06:19;;;;;;;21.13;13.57;;;4.30;89.30;;;;;;4912260;29;20468;-45
2021/11/13 06:08:46;;;;;;;19.93;12.77;;;4.30;89.20;;;;;;4908391;29;20501;-44
2021/11/13 06:11:12;;;;;;;16.13;10.70;;;4.40;89.20;;;;;;4895346;29;20846;-45
2021/11/13 06:13:39;;;;;;;18.47;11.93;;;4.40;89.10;;;;;;4909087;29;20480;-44
2021/11/13 06:16:09;;;;;;;19.80;12.03;;;4.40;89.10;;;;;;4896283;29;20838;-45
2021/11/13 06:18:37;;;;;;;26.93;12.87;;;4.30;89.10;;;;;;4904827;29;20469;-45
2021/11/13 06:21:06;;;;;;;17.30;11.47;;;4.30;89.20;;;;;;4910153;29;20500;-45
2021/11/13 06:23:34;;;;;;;24.70;13.67;;;4.30;89.20;;;;;;4911173;29;20472;-44
2021/11/13 06:26:01;;;;;;;17.70;11.47;;;4.40;89.30;;;;;;4911290;29;20473;-45
2021/11/13 06:28:28;;;;;;;17.60;11.90;;;4.40;89.20;;;;;;4911403;29;20479;-44
2021/11/13 06:30:55;;;;;;;20.97;13.00;;;4.40;89.00;;;;;;4896534;29;20461;-44
2021/11/13 06:33:22;;;;;;;19.30;11.70;;;4.40;89.10;;;;;;4909583;29;20468;-45
2021/11/13 06:35:49;;;;;;;17.17;11.73;;;4.40;89.00;;;;;;4909477;29;20481;-45
2021/11/13 06:38:16;;;;;;;18.90;12.67;;;4.40;89.00;;;;;;4912909;29;20480;-45
2021/11/13 06:40:43;;;;;;;16.80;12.10;;;4.50;88.80;;;;;;4895886;29;20843;-45
2021/11/13 06:43:10;;;;;;;21.17;12.77;;;4.40;88.80;;;;;;4907105;29;20457;-45
2021/11/13 06:45:37;;;;;;;19.80;11.83;;;4.50;88.80;;;;;;4909836;29;20480;-45
2021/11/13 06:48:05;;;;;;;16.90;11.27;;;4.50;88.70;;;;;;4910961;29;20469;-45
2021/11/13 06:50:33;;;;;;;13.90;9.73;;;4.50;88.60;;;;;;4904403;29;20483;-45
2021/11/13 06:53:00;;;;;;;21.60;11.57;;;4.40;88.70;;;;;;4895812;29;20468;-45
2021/11/13 06:55:27;;;;;;;16.23;10.10;;;4.50;88.80;;;;;;4910591;29;20500;-45
2021/11/13 06:57:54;;;;;;;16.47;10.77;;;4.50;89.00;;;;;;4911468;29;20475;-45
2021/11/13 07:00:22;;;;;;;21.87;11.60;;;4.50;88.90;;;;;;4912571;29;20963;-45
2021/11/13 07:02:48;;;;;;;19.63;12.40;;;4.50;89.00;;;;;;4894667;29;20990;-45
2021/11/13 07:05:15;;;;;;;19.27;13.67;;;4.50;89.00;;;;;;4904602;29;21007;-44
2021/11/13 07:07:42;;;;;;;21.63;13.43;;;4.50;88.90;;;;;;4907136;29;20472;-45
2021/11/13 07:10:12;;;;;;;20.40;12.80;;;4.50;89.00;;;;;;4894314;29;20920;-44
2021/11/13 07:12:39;;;;;;;20.50;12.50;;;4.60;88.90;;;;;;4913023;29;20463;-45
2021/11/13 07:15:07;;;;;;;16.90;11.20;;;4.60;89.00;;;;;;4908311;29;20987;-45
2021/11/13 07:17:33;;;;;;;15.97;11.17;;;4.60;88.90;;;;;;4909894;29;20501;-45
2021/11/13 07:20:00;;;;;;;20.77;13.73;;;4.60;88.90;;;;;;4910448;29;21174;-45
2021/11/13 07:22:27;;;;;;;20.20;11.67;;;4.60;88.90;;;;;;4907943;29;20536;-45
2021/11/13 07:24:54;;;;;;;21.10;12.33;;;4.60;88.70;;;;;;4911681;29;20496;-45
2021/11/13 07:27:21;;;;;;;19.57;11.33;;;4.60;88.90;;;;;;4910497;29;20496;-46
2021/11/13 07:29:57;;;;;;;20.00;11.97;;;4.70;88.90;;;;;;4896257;29;20465;-45
2021/11/13 07:32:25;;;;;;;19.53;13.03;;;4.70;88.80;;;;;;4909366;29;20468;-45
2021/11/13 07:34:51;;;;;;;22.33;13.87;;;4.70;88.90;;;;;;4909654;29;21424;-45
2021/11/13 07:37:19;;;;;;;19.60;12.67;;;4.70;89.00;;;;;;4907493;29;20590;-45
2021/11/13 07:39:45;;;;;;;23.00;13.43;;;4.70;89.00;;;;;;4911663;29;20461;-44
2021/11/13 07:42:12;;;;;;;18.43;12.33;;;4.70;89.00;;;;;;4908895;29;20530;-44
2021/11/13 07:44:39;;;;;;;21.97;11.87;;;4.70;89.00;;;;;;4911545;29;20990;-45
2021/11/13 07:47:07;;;;;;;22.27;13.50;;;4.70;88.90;;;;;;4910969;29;20551;-45
2021/11/13 07:49:33;;;;;;;23.27;13.40;;;4.70;89.10;;;;;;4911179;29;20461;-45
2021/11/13 07:52:00;;;;;;;21.50;13.17;;;4.80;89.00;;;;;;4912107;29;20456;-45
2021/11/13 07:54:27;;;;;;;21.03;13.83;;;4.80;88.90;;;;;;4911595;29;20475;-45
2021/11/13 07:56:54;;;;;;;22.47;12.47;;;4.80;88.90;;;;;;4911417;29;21022;-45
2021/11/13 07:59:21;;;;;;;26.00;13.90;;;4.90;88.90;;;;;;4908452;29;20464;-44
2021/11/13 08:01:48;;;;;;;23.90;13.33;;;4.90;88.90;;;;;;4910505;29;20469;-45
2021/11/13 08:04:14;;;;;;;16.73;13.27;;;4.90;88.90;;;;;;4892379;29;20464;-45
2021/11/13 08:06:41;;;;;;;20.70;13.37;;;4.90;88.90;;;;;;4903100;29;20972;-45
2021/11/13 08:09:08;;;;;;;21.70;13.97;;;4.90;89.00;;;;;;4910528;29;20469;-45
2021/11/13 08:11:35;;;;;;;17.63;11.97;;;4.90;89.10;;;;;;4907864;29;20479;-45
2021/11/13 08:14:02;;;;;;;21.47;12.47;;;5.00;88.90;;;;;;4910726;29;20468;-44
2021/11/13 08:16:29;;;;;;;19.13;11.27;;;5.00;88.80;;;;;;4898178;29;20502;-45
2021/11/13 08:18:59;;;;;;;24.03;13.40;;;5.00;88.90;;;;;;4908131;29;21011;-45
2021/11/13 08:21:26;;;;;;;21.27;12.43;;;5.00;88.70;;;;;;4906305;29;20461;-45
2021/11/13 08:23:52;;;;;;;20.37;12.83;;;5.10;88.90;;;;;;4909983;29;20960;-45
2021/11/13 08:26:19;;;;;;;22.03;13.70;;;5.10;88.90;;;;;;4911702;29;20472;-45
2021/11/13 08:28:46;;;;;;;18.80;12.20;;;5.10;89.00;;;;;;4908898;29;20473;-45
2021/11/13 08:31:13;;;;;;;17.90;11.17;;;5.10;89.00;;;;;;4908931;29;20861;-45
2021/11/13 08:33:39;;;;;;;17.97;12.53;;;5.20;88.70;;;;;;4906440;29;20465;-45
2021/11/13 08:36:06;;;;;;;21.10;12.30;;;5.20;88.70;;;;;;4907244;29;20500;-45
2021/11/13 08:38:33;;;;;;;21.33;14.73;;;5.20;88.80;;;;;;4908073;29;20863;-44
2021/11/13 08:41:01;;;;;;;18.90;12.40;;;5.20;88.80;;;;;;4906130;29;20838;-44
2021/11/13 08:43:27;;;;;;;14.87;11.10;;;5.20;88.70;;;;;;4905871;29;20461;-45
2021/11/13 08:45:54;;;;;;;16.70;12.37;;;5.30;88.50;;;;;;4894136;29;20565;-44
2021/11/13 08:48:21;;;;;;;16.17;11.87;;;5.30;88.40;;;;;;4897109;29;20557;-44
2021/11/13 08:50:49;;;;;;;16.03;11.17;;;5.30;88.40;;;;;;4909219;29;20469;-44
2021/11/13 08:53:16;;;;;;;18.53;11.10;;;5.30;88.40;;;;;;4911202;29;20469;-45
2021/11/13 08:55:44;;;;;;;20.50;12.77;;;5.30;88.30;;;;;;4912235;29;21016;-45
2021/11/13 08:58:11;;;;;;;21.50;12.70;;;5.30;88.30;;;;;;4898248;29;20471;-44
2021/11/13 09:00:46;;;;;;;18.33;11.20;;;5.30;88.40;;;;;;4911571;29;20464;-45
2021/11/13 09:03:38;;;;;;;20.60;10.37;;;5.30;88.40;;;;;;4895318;29;20472;-44
2021/11/13 09:06:09;;;;;;;17.00;12.10;;;5.30;88.50;;;;;;4912179;29;20904;-44
2021/11/13 09:08:40;;;;;;;18.83;12.10;;;5.30;88.60;;;;;;4909812;29;20888;-44
2021/11/13 09:11:10;;;;;;;18.70;12.20;;;5.40;88.50;;;;;;4895507;29;20468;-45
2021/11/13 09:13:38;;;;;;;18.80;12.00;;;5.40;88.50;;;;;;4912367;29;20466;-45
2021/11/13 09:16:09;;;;;;;20.20;12.87;;;5.40;88.50;;;;;;4910018;29;21066;-44
2021/11/13 09:18:38;;;;;;;18.30;12.10;;;5.40;88.50;;;;;;4912168;29;20473;-45
2021/11/13 09:21:09;;;;;;;16.40;11.77;;;5.40;88.60;;;;;;4914153;29;20528;-45
2021/11/13 09:23:37;;;;;;;19.20;12.63;;;5.50;88.50;;;;;;4913152;29;20495;-45
2021/11/13 09:26:06;;;;;;;19.80;12.07;;;5.50;88.40;;;;;;4895263;29;20468;-44
2021/11/13 09:28:35;;;;;;;18.33;12.77;;;5.50;88.50;;;;;;4911603;29;20472;-45
2021/11/13 09:31:01;;;;;;;27.13;13.60;;;5.50;88.50;;;;;;4908291;29;20492;-44
2021/11/13 09:33:29;;;;;;;22.17;15.03;;;5.50;88.60;;;;;;4913540;29;20475;-45
2021/11/13 09:35:57;;;;;;;22.23;16.17;;;5.60;88.30;;;;;;4895066;29;20465;-45
2021/11/13 09:38:32;;;;;;;18.30;12.43;;;5.60;88.30;;;;;;4909207;29;20480;-45
2021/11/13 09:41:02;;;;;;;21.57;13.27;;;5.70;88.30;;;;;;4897824;29;20456;-45
2021/11/13 09:43:30;;;;;;;17.80;12.80;;;5.70;88.10;;;;;;4913632;29;20460;-45
2021/11/13 09:46:00;;;;;;;21.03;13.60;;;5.70;88.10;;;;;;4915194;29;20886;-45
2021/11/13 09:48:27;;;;;;;19.03;12.73;;;5.70;88.20;;;;;;4911029;29;20465;-44
2021/11/13 09:50:54;;;;;;;21.90;14.90;;;5.70;88.30;;;;;;4909323;29;20465;-44
2021/11/13 09:53:23;;;;;;;24.23;13.47;;;5.80;88.20;;;;;;4912899;29;20472;-45
2021/11/13 09:55:53;;;;;;;21.33;12.83;;;5.80;88.30;;;;;;4895006;29;20863;-44
2021/11/13 09:58:20;;;;;;;19.63;13.83;;;5.90;88.20;;;;;;4912482;29;20480;-44
2021/11/13 10:00:48;;;;;;;22.90;14.40;;;5.90;88.00;;;;;;4912225;29;20543;-45
2021/11/13 10:03:18;;;;;;;25.57;15.43;;;5.90;88.20;;;;;;4910161;29;20453;-44
2021/11/13 10:05:51;;;;;;;24.20;14.73;;;5.90;88.10;;;;;;4893206;29;20960;-44
2021/11/13 10:08:19;;;;;;;24.47;13.93;;;5.90;88.20;;;;;;4912812;29;20504;-45
2021/11/13 10:10:47;;;;;;;25.50;15.37;;;5.90;88.30;;;;;;4908138;29;20472;-44
2021/11/13 10:13:28;;;;;;;26.87;15.50;;;5.90;88.30;;;;;;4909599;29;20469;-44
2021/11/13 10:16:04;;;;;;;21.80;14.90;;;5.90;88.30;;;;;;4908798;29;20461;-42
2021/11/13 10:18:35;;;;;;;27.33;14.43;;;5.90;88.30;;;;;;4909508;29;20475;-42
2021/11/13 10:21:11;;;;;;;24.43;15.17;;;5.90;88.30;;;;;;4911322;29;20460;-41
2021/11/13 10:23:45;;;;;;;22.10;15.60;;;6.00;88.30;;;;;;4912097;29;20460;-42
2021/11/13 10:26:16;;;;;;;23.90;14.47;;;6.00;88.30;;;;;;4889631;29;20461;-42
2021/11/13 10:29:16;;;;;;;22.93;15.27;;;6.00;88.10;;;;;;4894851;29;20464;-42
2021/11/13 10:31:58;;;;;;;21.70;14.40;;;6.10;88.20;;;;;;4895708;29;20452;-43
2021/11/13 10:34:27;;;;;;;23.60;16.03;;;6.10;88.10;;;;;;4911473;29;20984;-42
2021/11/13 10:36:58;;;;;;;24.10;15.80;;;6.10;88.10;;;;;;4911906;29;20855;-42
2021/11/13 10:39:27;;;;;;;21.30;16.00;;;6.10;88.10;;;;;;4898242;29;20461;-42
2021/11/13 10:42:00;;;;;;;24.20;15.23;;;6.10;88.10;;;;;;4911100;29;20643;-42
2021/11/13 10:44:30;;;;;;;23.63;14.70;;;6.10;88.20;;;;;;4912818;29;20456;-41
2021/11/13 10:47:00;;;;;;;22.20;13.73;;;6.10;88.20;;;;;;4910642;29;20862;-42
2021/11/13 10:49:28;;;;;;;22.23;13.90;;;6.10;88.20;;;;;;4911230;29;20984;-42
2021/11/13 10:51:58;;;;;;;26.70;15.17;;;6.10;88.20;;;;;;4910629;29;20487;-42
2021/11/13 10:54:28;;;;;;;20.90;13.87;;;6.20;88.20;;;;;;4891635;29;20873;-41
2021/11/13 10:57:01;;;;;;;25.23;15.07;;;6.20;88.20;;;;;;4895700;29;20509;-42
2021/11/13 10:59:34;;;;;;;25.27;15.53;;;6.20;88.30;;;;;;4907357;29;20457;-43
2021/11/13 11:02:15;;;;;;;30.23;14.83;;;6.20;88.40;;;;;;4896011;29;20451;-43
2021/11/13 11:04:44;;;;;;;21.47;13.93;;;6.20;88.40;;;;;;4911305;29;20452;-42
2021/11/13 11:07:25;;;;;;;24.07;15.97;;;6.30;88.50;;;;;;4890838;29;20524;-42
2021/11/13 11:10:08;;;;;;;25.27;15.50;;;6.30;88.50;;;;;;4910425;29;20487;-42
2021/11/13 11:12:39;;;;;;;23.60;14.40;;;6.30;88.50;;;;;;4893844;29;20480;-42
2021/11/13 11:15:12;;;;;;;26.50;14.70;;;6.30;88.50;;;;;;4911117;29;20461;-41
2021/11/13 11:17:46;;;;;;;21.63;15.27;;;6.30;88.50;;;;;;4896232;29;21023;-42
2021/11/13 11:20:15;;;;;;;25.20;16.40;;;6.30;88.50;;;;;;4908426;29;20464;-42
2021/11/13 11:22:43;;;;;;;28.40;17.30;;;6.30;88.50;;;;;;4906713;29;20980;-42
2021/11/13 11:25:13;;;;;;;28.77;17.17;;;6.30;88.40;;;;;;4907589;29;20473;-42
2021/11/13 11:27:42;;;;;;;24.07;14.63;;;6.30;88.40;;;;;;4891769;29;20473;-42
2021/11/13 11:30:14;;;;;;;27.97;17.40;;;6.30;88.50;;;;;;4905617;29;20472;-42
2021/11/13 11:32:49;;;;;;;23.70;15.77;;;6.30;88.70;;;;;;4909151;29;20976;-41
2021/11/13 11:35:24;;;;;;;41.80;25.07;;;6.30;88.70;;;;;;4910458;29;20460;-42
2021/11/13 11:37:55;;;;;;;31.70;18.87;;;6.30;88.80;;;;;;4910952;29;20491;-42
2021/11/13 11:40:26;;;;;;;28.80;17.40;;;6.30;88.90;;;;;;4909208;29;20464;-42
2021/11/13 11:42:53;;;;;;;21.93;16.30;;;6.30;88.90;;;;;;4910340;29;20828;-42
2021/11/13 11:45:22;;;;;;;26.93;14.80;;;6.30;89.00;;;;;;4908275;29;20465;-42
2021/11/13 11:47:51;;;;;;;21.10;13.30;;;6.30;89.00;;;;;;4908424;29;20464;-42
2021/11/13 11:50:24;;;;;;;18.60;14.43;;;6.30;89.10;;;;;;4910242;29;20964;-42
2021/11/13 11:52:55;;;;;;;24.43;15.27;;;6.40;89.30;;;;;;4910824;29;21954;-42
2021/11/13 11:55:22;;;;;;;25.60;13.90;;;6.40;89.50;;;;;;4910461;29;20495;-42
2021/11/13 11:57:54;;;;;;;21.00;14.47;;;6.50;89.60;;;;;;4894283;29;21030;-42
2021/11/13 12:00:24;;;;;;;22.07;13.80;;;6.50;89.70;;;;;;4909426;29;20472;-42
2021/11/13 12:02:54;;;;;;;22.00;14.47;;;6.50;89.70;;;;;;4907160;29;20963;-42
2021/11/13 12:05:23;;;;;;;21.77;14.30;;;6.50;89.70;;;;;;4892768;29;20999;-42
2021/11/13 12:07:52;;;;;;;20.10;13.50;;;6.50;89.70;;;;;;4892296;29;20857;-41
2021/11/13 12:10:28;;;;;;;24.47;15.30;;;6.50;89.80;;;;;;4909464;29;20475;-42
2021/11/13 12:13:14;;;;;;;25.67;16.50;;;6.50;89.80;;;;;;4906980;29;20470;-41
2021/11/13 12:15:46;;;;;;;22.80;14.63;;;6.50;89.80;;;;;;4910176;29;21313;-42
2021/11/13 12:18:20;;;;;;;23.83;14.87;;;6.50;89.80;;;;;;4910217;29;20488;-42
2021/11/13 12:21:03;;;;;;;27.17;15.13;;;6.50;89.80;;;;;;4909496;29;20469;-42
2021/11/13 12:23:33;;;;;;;24.37;14.67;;;6.50;89.80;;;;;;4913180;29;20468;-42
2021/11/13 12:26:18;;;;;;;22.77;14.07;;;6.60;89.80;;;;;;4910451;29;20565;-42
2021/11/13 12:28:45;;;;;;;20.73;13.93;;;6.60;89.80;;;;;;4910742;29;20472;-42
2021/11/13 12:31:22;;;;;;;26.10;14.90;;;6.60;89.80;;;;;;4911205;29;20461;-42
2021/11/13 12:34:02;;;;;;;24.93;14.80;;;6.60;89.80;;;;;;4897631;29;20479;-42
2021/11/13 12:36:49;;;;;;;24.73;15.57;;;6.60;89.80;;;;;;4913401;29;20472;-42
2021/11/13 12:39:19;;;;;;;23.20;14.97;;;6.60;89.80;;;;;;4911178;29;20464;-42
2021/11/13 12:41:58;;;;;;;24.53;15.30;;;6.60;89.80;;;;;;4912312;29;20483;-42
2021/11/13 12:44:25;;;;;;;23.70;15.77;;;6.60;89.80;;;;;;4896527;29;20469;-42
2021/11/13 12:46:59;;;;;;;26.90;18.40;;;6.60;89.80;;;;;;4913443;29;20487;-43